Pagina principale
METAR-TAF:

METAR-TAF

Aeroporti :

Aeroporto di Genova-Sestri

Genova, Italia

latitudine: 44-25N, longitudine: 008-51E, altezza: 2 m

Osservazione

Il bollettino è stato emesso 25 minuti fa, alle 14:20 UTC
Vento 4 kt da sud/sud-est, variando fra sud-est e sud/sud-ovest
Temperature 12°C
Umidità 67%
Pressione 1024 hPa
Visibilità 10 km o più
Nubi sparse ad un'altezza di 2800 ft
Nubi sparse ad un'altezza di 3200 ft

METAR: LIMJ 181420Z 15004KT 130V200 9999 SCT028 SCT032 12/06 Q1024

Ora: 15:45 (14:45 UTC)

Previsione

Il bollettino è stato emesso 3 ore e 45 minuti fa, alle 11:00 UTC
Previsione valida dal 18 alle 12 UTC al 19 alle 12 UTC
Vento 5 kt da sud-est
Visibilità 10 km o più
Nubi sparse ad un'altezza di 2500 ft

TAF: LIMJ 181100Z 1812/1912 14005KT 9999 SCT025

Osservazioni e previsioni meteorologiche di più di 4000 aeroporti (messaggi METAR e TAF).

Le stazioni disponibili sono rappresentate dai dischi gialli e rossi sulla carta.

Puntare il mouse per vedere il nome della stazione.

Clicca sopra per visualizzare le osservazioni e previsioni meteorologiche.

Per cambiare la mappa : fare clic sui pulsanti verdi con una croce nera per ingrandire, il pulsante verde con un trattino per diminuire, o sulla freccia verde per le mappe adiacenti.


METAR-TAF: